createdAt,value
2023-11-02T00:03:11.927Z,91.50
2023-11-02T00:06:38.445Z,91.71
2023-11-02T00:10:02.385Z,92.08
2023-11-02T00:13:28.224Z,92.86
2023-11-02T00:16:50.328Z,92.57
2023-11-02T00:20:24.084Z,93.50
2023-11-02T00:23:48.162Z,93.69
2023-11-02T00:27:12.255Z,93.66
2023-11-02T00:30:37.715Z,94.07
2023-11-02T00:33:59.678Z,93.61
2023-11-02T00:37:21.538Z,94.66
2023-11-02T00:40:43.538Z,94.73
2023-11-02T00:44:07.758Z,94.11
2023-11-02T00:47:29.157Z,93.56
2023-11-02T00:51:18.500Z,93.84
2023-11-02T00:54:59.782Z,93.54
2023-11-02T00:58:31.397Z,93.17
2023-11-02T01:01:54.554Z,92.85
2023-11-02T01:05:25.635Z,92.33
2023-11-02T01:08:55.118Z,91.65
2023-11-02T01:12:25.594Z,91.77
2023-11-02T01:16:03.499Z,91.42
2023-11-02T01:19:54.946Z,90.63
2023-11-02T01:23:18.850Z,91.26
2023-11-02T01:27:01.154Z,90.63
2023-11-02T01:31:05.354Z,90.23
2023-11-02T01:34:30.441Z,89.65
2023-11-02T01:37:53.637Z,89.88
2023-11-02T01:41:20.016Z,89.81
2023-11-02T01:44:48.062Z,89.14
2023-11-02T01:48:20.155Z,89.58
2023-11-02T01:51:53.269Z,88.74
2023-11-02T01:55:28.991Z,88.98
2023-11-02T01:59:05.656Z,88.03
2023-11-02T02:02:36.121Z,88.42
2023-11-02T02:06:07.048Z,87.58
2023-11-02T02:09:43.089Z,87.75
2023-11-02T02:13:22.955Z,87.49
2023-11-02T02:16:53.320Z,87.74
2023-11-02T02:20:21.310Z,87.24
2023-11-02T02:23:49.999Z,87.21
2023-11-02T02:27:43.883Z,88.21
2023-11-02T02:31:39.461Z,88.72
2023-11-02T02:35:09.206Z,89.05
2023-11-02T02:38:41.866Z,89.15
2023-11-02T02:42:05.947Z,89.47
2023-11-02T02:45:30.933Z,90.16
2023-11-02T02:48:52.845Z,90.53
2023-11-02T02:52:20.919Z,91.96
2023-11-02T02:55:45.761Z,92.49
2023-11-02T02:59:11.166Z,92.51
2023-11-02T03:02:34.551Z,92.71
2023-11-02T03:05:58.324Z,93.60
2023-11-02T03:09:23.657Z,93.84
2023-11-02T03:12:48.493Z,94.41
2023-11-02T03:16:14.874Z,94.70
2023-11-02T03:19:46.345Z,94.82
2023-11-02T03:23:19.336Z,94.59
2023-11-02T03:26:51.654Z,94.10
2023-11-02T03:30:21.598Z,93.57
2023-11-02T03:34:00.084Z,93.69
2023-11-02T03:37:30.490Z,93.17
2023-11-02T03:41:06.713Z,92.42
2023-11-02T03:44:41.273Z,92.04
2023-11-02T03:48:15.157Z,91.74
2023-11-02T03:51:45.537Z,91.31
2023-11-02T03:55:21.210Z,91.45
2023-11-02T03:58:56.894Z,91.27
2023-11-02T04:02:30.903Z,90.56
2023-11-02T04:05:59.180Z,90.78
2023-11-02T04:09:23.206Z,91.11
2023-11-02T04:12:54.289Z,90.79
2023-11-02T04:16:15.969Z,90.79
2023-11-02T04:19:38.850Z,90.75
2023-11-02T04:23:00.449Z,91.19
2023-11-02T04:26:22.093Z,91.06
2023-11-02T04:29:43.560Z,90.97
2023-11-02T04:33:05.374Z,90.79
2023-11-02T04:36:28.746Z,91.17
2023-11-02T04:39:50.767Z,90.81
2023-11-02T04:43:12.593Z,91.38
2023-11-02T04:46:34.431Z,91.06
2023-11-02T04:49:56.119Z,91.49
2023-11-02T04:53:19.725Z,92.04
2023-11-02T04:56:41.190Z,91.95
2023-11-02T05:00:05.020Z,92.03
2023-11-02T05:03:27.482Z,92.27
2023-11-02T05:06:49.360Z,92.06
2023-11-02T05:10:12.697Z,92.89
2023-11-02T05:13:34.256Z,92.38
2023-11-02T05:16:55.639Z,92.70
2023-11-02T05:20:17.498Z,92.75
2023-11-02T05:23:39.039Z,93.39
2023-11-02T05:27:02.066Z,93.74
2023-11-02T05:30:23.780Z,93.84
2023-11-02T05:33:45.862Z,94.34
2023-11-02T05:37:08.311Z,94.53
2023-11-02T05:40:30.397Z,94.63
2023-11-02T05:43:53.105Z,94.69
2023-11-02T05:47:15.341Z,95.23
2023-11-02T05:50:40.055Z,95.18
2023-11-02T05:54:01.730Z,95.82
2023-11-02T05:57:23.665Z,95.50
2023-11-02T06:00:46.656Z,95.98
2023-11-02T06:04:08.239Z,95.96
2023-11-02T06:07:30.046Z,96.00
2023-11-02T06:10:51.357Z,95.63
2023-11-02T06:14:13.179Z,95.40
2023-11-02T06:17:35.989Z,95.20
2023-11-02T06:20:57.633Z,95.09
2023-11-02T06:24:19.036Z,94.81
2023-11-02T06:27:41.014Z,94.52
2023-11-02T06:31:02.906Z,94.88
2023-11-02T06:34:25.885Z,94.47
2023-11-02T06:37:58.045Z,94.57
2023-11-02T06:41:19.784Z,94.58
2023-11-02T06:44:44.615Z,94.13
2023-11-02T06:48:07.109Z,94.09
2023-11-02T06:51:30.254Z,93.91
2023-11-02T06:54:52.040Z,93.32
2023-11-02T06:58:13.581Z,93.38
2023-11-02T07:01:36.048Z,93.03
2023-11-02T07:04:59.292Z,93.15
2023-11-02T07:08:22.478Z,93.42
2023-11-02T07:11:44.279Z,93.26
2023-11-02T07:15:06.574Z,92.36
2023-11-02T07:18:28.513Z,91.82
2023-11-02T07:21:50.020Z,91.97
2023-11-02T07:25:13.276Z,91.16
2023-11-02T07:28:34.724Z,90.93
2023-11-02T07:31:56.064Z,89.79
2023-11-02T07:35:17.523Z,90.41
2023-11-02T07:38:39.758Z,89.77
2023-11-02T07:42:03.564Z,89.66
2023-11-02T07:45:27.384Z,90.52
2023-11-02T07:48:49.355Z,90.07
2023-11-02T07:52:11.264Z,90.54
2023-11-02T07:55:32.619Z,90.92
2023-11-02T07:58:55.460Z,91.07
2023-11-02T08:02:17.375Z,91.96
2023-11-02T08:05:40.403Z,92.16
2023-11-02T08:09:02.146Z,92.48
2023-11-02T08:12:23.883Z,92.47
2023-11-02T08:15:47.075Z,92.85
2023-11-02T08:19:09.042Z,93.19
2023-11-02T08:22:32.083Z,94.01
2023-11-02T08:25:54.110Z,93.55
2023-11-02T08:29:16.508Z,92.87
2023-11-02T08:32:39.594Z,92.07
2023-11-02T08:36:01.220Z,91.34
2023-11-02T08:39:23.221Z,90.92
2023-11-02T08:42:45.375Z,89.96
2023-11-02T08:46:07.496Z,89.44
2023-11-02T08:49:31.092Z,88.17
2023-11-02T08:52:52.863Z,87.92
2023-11-02T08:56:14.831Z,86.92
2023-11-02T08:59:36.188Z,88.10
2023-11-02T09:02:57.581Z,87.12
2023-11-02T09:06:21.633Z,87.00
2023-11-02T09:09:43.834Z,87.07
2023-11-02T09:13:05.549Z,86.43
2023-11-02T09:16:27.638Z,85.21
2023-11-02T09:19:49.212Z,85.10
2023-11-02T09:23:12.085Z,84.57
2023-11-02T09:26:33.876Z,84.42
2023-11-02T09:29:55.343Z,83.52
2023-11-02T09:33:17.676Z,82.61
2023-11-02T09:36:39.775Z,82.77
2023-11-02T09:40:04.437Z,82.39
2023-11-02T09:43:27.331Z,83.61
2023-11-02T09:46:50.684Z,83.95
2023-11-02T09:50:12.592Z,83.58
2023-11-02T09:53:34.821Z,83.15
2023-11-02T09:56:59.191Z,81.38
2023-11-02T10:00:21.891Z,81.65
2023-11-02T10:03:44.179Z,83.75
2023-11-02T10:07:06.565Z,83.12
2023-11-02T10:10:32.666Z,81.43
2023-11-02T10:13:57.410Z,79.30
2023-11-02T10:17:19.693Z,78.73
2023-11-02T10:20:41.416Z,77.12
2023-11-02T10:24:04.186Z,76.17
2023-11-02T10:27:26.194Z,74.67
2023-11-02T10:30:50.274Z,73.75
2023-11-02T10:34:12.124Z,72.68
2023-11-02T10:37:35.527Z,71.03
2023-11-02T10:40:57.567Z,71.19
2023-11-02T10:44:19.462Z,70.16
2023-11-02T10:47:43.820Z,69.47
2023-11-02T10:51:07.419Z,69.22
2023-11-02T10:54:47.208Z,68.85
2023-11-02T10:58:10.079Z,69.01
2023-11-02T11:01:32.541Z,69.55
2023-11-02T11:04:58.845Z,69.37
2023-11-02T11:08:21.621Z,69.08
2023-11-02T11:11:43.709Z,69.19
2023-11-02T11:15:07.366Z,68.64
2023-11-02T11:18:30.118Z,68.47
2023-11-02T11:21:57.330Z,69.63
2023-11-02T11:25:19.874Z,68.19
2023-11-02T11:28:41.739Z,68.77
2023-11-02T11:32:04.951Z,66.64
2023-11-02T11:35:26.801Z,66.58
2023-11-02T11:38:49.749Z,67.18
2023-11-02T11:42:11.606Z,66.56
2023-11-02T11:45:34.787Z,67.45
2023-11-02T11:48:56.419Z,67.32
2023-11-02T11:52:26.436Z,68.41
2023-11-02T11:55:51.143Z,67.78
2023-11-02T11:59:15.060Z,68.19
2023-11-02T12:02:37.916Z,68.46
2023-11-02T12:05:59.767Z,68.55
2023-11-02T12:09:27.702Z,68.66
2023-11-02T12:12:50.996Z,68.69
2023-11-02T12:16:12.765Z,67.22
2023-11-02T12:19:41.563Z,67.20
2023-11-02T12:23:03.625Z,66.54
2023-11-02T12:26:27.211Z,67.14
2023-11-02T12:29:59.933Z,66.77
2023-11-02T12:33:23.136Z,67.16
2023-11-02T12:36:46.086Z,66.22
2023-11-02T12:40:09.299Z,66.55
2023-11-02T12:43:31.321Z,66.04
2023-11-02T12:47:07.890Z,66.99
2023-11-02T12:50:31.801Z,67.35
2023-11-02T12:53:54.612Z,67.28
2023-11-02T12:57:17.336Z,67.83
2023-11-02T13:00:40.219Z,67.54
2023-11-02T13:04:05.216Z,67.06
2023-11-02T13:07:28.799Z,67.52
2023-11-02T13:10:50.832Z,66.52
2023-11-02T13:14:13.528Z,67.54
2023-11-02T13:17:34.900Z,67.86
2023-11-02T13:20:58.921Z,68.17
2023-11-02T13:24:21.504Z,68.24
2023-11-02T13:27:43.097Z,68.14
2023-11-02T13:31:07.478Z,68.79
2023-11-02T13:34:29.433Z,68.17
2023-11-02T13:37:52.874Z,67.95
2023-11-02T13:41:15.161Z,68.85
2023-11-02T13:44:37.411Z,68.58
2023-11-02T13:47:59.468Z,68.97
2023-11-02T13:51:21.442Z,69.59
2023-11-02T13:54:44.830Z,69.25
2023-11-02T13:58:06.741Z,69.96
2023-11-02T14:01:28.836Z,69.31
2023-11-02T14:04:50.892Z,70.15
2023-11-02T14:08:13.331Z,70.04
2023-11-02T14:11:36.729Z,70.30
2023-11-02T14:14:58.831Z,70.78
2023-11-02T14:18:20.998Z,71.17
2023-11-02T14:21:42.627Z,71.24
2023-11-02T14:25:05.867Z,72.08
2023-11-02T14:28:29.779Z,71.66
2023-11-02T14:31:51.310Z,72.52
2023-11-02T14:35:13.447Z,71.66
2023-11-02T14:38:35.379Z,72.46
2023-11-02T14:41:56.740Z,72.01
2023-11-02T14:45:20.519Z,72.30
2023-11-02T14:48:42.543Z,72.82
2023-11-02T14:52:08.011Z,73.71
2023-11-02T14:55:29.793Z,73.78
2023-11-02T14:58:51.056Z,73.33
2023-11-02T15:02:13.955Z,74.20
2023-11-02T15:05:35.901Z,73.57
2023-11-02T15:09:05.259Z,74.42
2023-11-02T15:12:29.499Z,74.96
2023-11-02T15:15:51.295Z,74.77
2023-11-02T15:19:14.575Z,75.15
2023-11-02T15:22:36.874Z,75.75
2023-11-02T15:25:58.531Z,75.67
2023-11-02T15:29:19.817Z,76.04
2023-11-02T15:32:41.875Z,76.11
2023-11-02T15:36:07.986Z,77.09
2023-11-02T15:39:31.577Z,77.35
2023-11-02T15:42:54.529Z,77.02
2023-11-02T15:46:16.790Z,77.75
2023-11-02T15:49:41.104Z,78.01
2023-11-02T15:53:04.387Z,77.94
2023-11-02T15:56:26.193Z,78.28
2023-11-02T15:59:47.850Z,78.50
2023-11-02T16:03:09.602Z,78.27
2023-11-02T16:06:31.532Z,78.17
2023-11-02T16:09:54.775Z,78.38
2023-11-02T16:13:16.323Z,78.50
2023-11-02T16:16:37.757Z,78.73
2023-11-02T16:20:01.672Z,78.56
2023-11-02T16:23:23.811Z,79.01
2023-11-02T16:26:47.387Z,79.46
2023-11-02T16:30:10.739Z,79.43
2023-11-02T16:33:32.691Z,79.48
2023-11-02T16:36:54.728Z,79.78
2023-11-02T16:40:16.761Z,79.71
2023-11-02T16:43:39.641Z,79.44
2023-11-02T16:47:01.488Z,78.57
2023-11-02T16:50:22.896Z,79.17
2023-11-02T16:53:44.722Z,79.22
2023-11-02T16:57:07.527Z,79.07
2023-11-02T17:00:30.443Z,78.73
2023-11-02T17:03:52.152Z,78.58
2023-11-02T17:07:14.080Z,78.28
2023-11-02T17:10:36.228Z,78.49
2023-11-02T17:13:58.546Z,78.39
2023-11-02T17:17:21.621Z,78.02
2023-11-02T17:20:43.546Z,78.37
2023-11-02T17:24:05.699Z,78.19
2023-11-02T17:27:54.845Z,78.24
2023-11-02T17:31:16.586Z,78.25
2023-11-02T17:34:40.315Z,78.40
2023-11-02T17:38:03.044Z,77.88
2023-11-02T17:41:24.577Z,78.29
2023-11-02T17:44:45.912Z,78.90
2023-11-02T17:48:09.995Z,78.45
2023-11-02T17:51:33.083Z,78.93
2023-11-02T17:54:54.695Z,78.79
2023-11-02T17:58:16.671Z,79.15
2023-11-02T18:01:38.327Z,79.22
2023-11-02T18:04:59.716Z,79.12
2023-11-02T18:08:23.038Z,78.93
2023-11-02T18:11:44.377Z,79.22
2023-11-02T18:15:06.673Z,79.44
2023-11-02T18:18:28.375Z,79.30
2023-11-02T18:21:50.121Z,79.42
2023-11-02T18:25:15.578Z,80.11
2023-11-02T18:28:37.344Z,80.21
2023-11-02T18:31:58.921Z,81.16
2023-11-02T18:35:23.357Z,81.84
2023-11-02T18:38:44.946Z,82.84
2023-11-02T18:42:08.685Z,84.00
2023-11-02T18:45:30.567Z,84.31
2023-11-02T18:48:52.522Z,85.50
2023-11-02T18:52:15.161Z,86.12
2023-11-02T18:55:37.538Z,86.78
2023-11-02T18:59:00.474Z,87.62
2023-11-02T19:02:22.340Z,88.08
2023-11-02T19:05:46.563Z,88.49
2023-11-02T19:09:08.203Z,88.84
2023-11-02T19:12:29.695Z,89.46
2023-11-02T19:15:53.325Z,90.01
2023-11-02T19:19:15.438Z,90.80
2023-11-02T19:22:36.998Z,91.31
2023-11-02T19:26:01.025Z,92.06
2023-11-02T19:29:22.588Z,92.49
2023-11-02T19:32:45.503Z,92.92
2023-11-02T19:36:08.296Z,93.49
2023-11-02T19:39:30.183Z,93.91
2023-11-02T19:42:52.185Z,94.07
2023-11-02T19:46:20.485Z,94.16
2023-11-02T19:49:43.608Z,95.26
2023-11-02T19:53:05.089Z,95.14
2023-11-02T19:56:26.638Z,95.85
2023-11-02T19:59:48.211Z,96.13
2023-11-02T20:03:11.001Z,96.74
2023-11-02T20:06:35.353Z,96.61
2023-11-02T20:09:57.028Z,97.00
2023-11-02T20:13:19.060Z,97.55
2023-11-02T20:16:40.676Z,97.68
2023-11-02T20:20:02.020Z,98.31
2023-11-02T20:23:25.779Z,98.85
2023-11-02T20:26:47.312Z,98.75
2023-11-02T20:30:10.876Z,99.38
2023-11-02T20:33:33.065Z,98.84
2023-11-02T20:36:54.545Z,99.44
2023-11-02T20:40:19.435Z,98.92
2023-11-02T20:43:41.235Z,99.39
2023-11-02T20:47:02.635Z,99.81
2023-11-02T20:50:24.033Z,100.00
2023-11-02T20:53:45.517Z,99.97
2023-11-02T20:57:08.726Z,100.00
2023-11-02T21:00:36.958Z,100.00
2023-11-02T21:04:06.448Z,100.00
2023-11-02T21:07:28.464Z,100.00
2023-11-02T21:10:50.449Z,100.00
2023-11-02T21:14:13.333Z,100.00
2023-11-02T21:17:35.198Z,100.00
2023-11-02T21:20:56.929Z,100.00
2023-11-02T21:24:18.246Z,100.00
2023-11-02T21:27:41.904Z,100.00
2023-11-02T21:31:05.425Z,100.00
2023-11-02T21:34:27.460Z,100.00
2023-11-02T21:37:52.206Z,100.00
2023-11-02T21:41:14.246Z,100.00
2023-11-02T21:44:36.113Z,100.00
2023-11-02T21:48:00.280Z,100.00
2023-11-02T21:51:22.065Z,100.00
2023-11-02T21:54:43.673Z,100.00
2023-11-02T21:58:05.400Z,100.00
2023-11-02T22:01:27.022Z,100.00
2023-11-02T22:04:50.561Z,100.00
2023-11-02T22:08:12.737Z,100.00
2023-11-02T22:11:34.120Z,100.00
2023-11-02T22:14:55.876Z,100.00
2023-11-02T22:18:17.601Z,100.00
2023-11-02T22:21:41.109Z,100.00
2023-11-02T22:25:03.487Z,100.00
2023-11-02T22:28:25.175Z,100.00
2023-11-02T22:31:46.560Z,100.00
2023-11-02T22:35:09.009Z,100.00
2023-11-02T22:38:32.346Z,100.00
2023-11-02T22:41:53.887Z,100.00
2023-11-02T22:45:15.711Z,100.00
2023-11-02T22:48:38.391Z,100.00
2023-11-02T22:52:00.027Z,100.00
2023-11-02T22:55:23.362Z,100.00
2023-11-02T22:58:45.342Z,100.00
2023-11-02T23:02:07.430Z,100.00
2023-11-02T23:05:29.789Z,100.00
2023-11-02T23:08:51.729Z,100.00
2023-11-02T23:12:16.263Z,100.00
2023-11-02T23:15:38.080Z,100.00
2023-11-02T23:18:59.828Z,100.00
2023-11-02T23:22:21.907Z,100.00
2023-11-02T23:25:43.982Z,100.00
2023-11-02T23:29:08.844Z,100.00
2023-11-02T23:32:30.736Z,100.00
2023-11-02T23:35:52.194Z,100.00
2023-11-02T23:39:14.083Z,100.00
2023-11-02T23:42:35.464Z,100.00
2023-11-02T23:45:58.581Z,100.00
2023-11-02T23:49:20.279Z,100.00
2023-11-02T23:52:43.359Z,100.00
2023-11-02T23:56:05.693Z,100.00
2023-11-02T23:59:29.019Z,100.00
